sensor_id;sensor_type;location;lat;lon;timestamp;pressure;altitude;pressure_sealevel;temperature;humidity
51452;BME280;37521;52.020;-1.740;2023-02-21T00:00:40;100425.13;;;5.73;100.00
51452;BME280;37521;52.020;-1.740;2023-02-21T00:03:25;100419.94;;;5.71;100.00
51452;BME280;37521;52.020;-1.740;2023-02-21T00:06:12;100427.78;;;5.71;100.00
51452;BME280;37521;52.020;-1.740;2023-02-21T00:08:58;100427.78;;;5.71;100.00
51452;BME280;37521;52.020;-1.740;2023-02-21T00:11:44;100433.03;;;5.71;100.00
51452;BME280;37521;52.020;-1.740;2023-02-21T00:14:29;100430.44;;;5.70;100.00
51452;BME280;37521;52.020;-1.740;2023-02-21T00:17:15;100421.69;;;5.71;100.00
51452;BME280;37521;52.020;-1.740;2023-02-21T00:20:01;100419.97;;;5.70;100.00
51452;BME280;37521;52.020;-1.740;2023-02-21T00:22:48;100424.41;;;5.66;100.00
51452;BME280;37521;52.020;-1.740;2023-02-21T00:25:34;100418.28;;;5.66;100.00
51452;BME280;37521;52.020;-1.740;2023-02-21T00:28:19;100413.94;;;5.65;100.00
51452;BME280;37521;52.020;-1.740;2023-02-21T00:31:05;100416.56;;;5.65;100.00
51452;BME280;37521;52.020;-1.740;2023-02-21T00:33:51;100418.25;;;5.67;100.00
51452;BME280;37521;52.020;-1.740;2023-02-21T00:36:36;100417.41;;;5.68;100.00
51452;BME280;37521;52.020;-1.740;2023-02-21T00:39:23;100408.63;;;5.69;100.00
51452;BME280;37521;52.020;-1.740;2023-02-21T00:42:09;100403.34;;;5.71;100.00
51452;BME280;37521;52.020;-1.740;2023-02-21T00:44:55;100404.19;;;5.73;100.00
51452;BME280;37521;52.020;-1.740;2023-02-21T00:47:40;100410.28;;;5.73;100.00
51452;BME280;37521;52.020;-1.740;2023-02-21T00:50:26;100407.63;;;5.75;100.00
51452;BME280;37521;52.020;-1.740;2023-02-21T00:53:12;100396.28;;;5.74;100.00
51452;BME280;37521;52.020;-1.740;2023-02-21T00:55:59;100395.41;;;5.74;100.00
51452;BME280;37521;52.020;-1.740;2023-02-21T00:58:44;100394.59;;;5.72;100.00
51452;BME280;37521;52.020;-1.740;2023-02-21T01:01:30;100385.88;;;5.71;100.00
51452;BME280;37521;52.020;-1.740;2023-02-21T01:04:16;100391.06;;;5.73;100.00
51452;BME280;37521;52.020;-1.740;2023-02-21T01:07:02;100391.13;;;5.71;100.00
51452;BME280;37521;52.020;-1.740;2023-02-21T01:09:47;100389.41;;;5.70;100.00
51452;BME280;37521;52.020;-1.740;2023-02-21T01:12:34;100386.75;;;5.72;100.00
51452;BME280;37521;52.020;-1.740;2023-02-21T01:15:20;100380.69;;;5.70;100.00
51452;BME280;37521;52.020;-1.740;2023-02-21T01:18:05;100378.06;;;5.70;100.00
51452;BME280;37521;52.020;-1.740;2023-02-21T01:20:51;100379.78;;;5.71;100.00
51452;BME280;37521;52.020;-1.740;2023-02-21T01:23:37;100379.75;;;5.72;100.00
51452;BME280;37521;52.020;-1.740;2023-02-21T01:26:23;100370.16;;;5.71;100.00
51452;BME280;37521;52.020;-1.740;2023-02-21T01:29:10;100375.41;;;5.71;100.00
51452;BME280;37521;52.020;-1.740;2023-02-21T01:31:56;100364.06;;;5.71;100.00
51452;BME280;37521;52.020;-1.740;2023-02-21T01:34:41;100370.16;;;5.71;100.00
51452;BME280;37521;52.020;-1.740;2023-02-21T01:37:27;100374.53;;;5.71;100.00
51452;BME280;37521;52.020;-1.740;2023-02-21T01:40:15;100367.53;;;5.71;100.00
51452;BME280;37521;52.020;-1.740;2023-02-21T01:43:01;100370.16;;;5.71;100.00
51452;BME280;37521;52.020;-1.740;2023-02-21T01:45:50;100350.13;;;5.69;100.00
51452;BME280;37521;52.020;-1.740;2023-02-21T01:48:36;100355.38;;;5.69;100.00
51452;BME280;37521;52.020;-1.740;2023-02-21T01:51:24;100345.75;;;5.69;100.00
51452;BME280;37521;52.020;-1.740;2023-02-21T01:54:12;100347.53;;;5.69;100.00
51452;BME280;37521;52.020;-1.740;2023-02-21T01:56:59;100348.47;;;5.65;100.00
51452;BME280;37521;52.020;-1.740;2023-02-21T01:59:46;100344.16;;;5.61;100.00
51452;BME280;37521;52.020;-1.740;2023-02-21T02:02:47;100351.16;;;5.60;100.00
51452;BME280;37521;52.020;-1.740;2023-02-21T02:05:36;100338.97;;;5.59;100.00
51452;BME280;37521;52.020;-1.740;2023-02-21T02:08:29;100343.34;;;5.59;100.00
51452;BME280;37521;52.020;-1.740;2023-02-21T02:11:32;100336.34;;;5.59;100.00
51452;BME280;37521;52.020;-1.740;2023-02-21T02:17:18;100332.91;;;5.57;100.00
51452;BME280;37521;52.020;-1.740;2023-02-21T02:23:05;100336.44;;;5.55;100.00
51452;BME280;37521;52.020;-1.740;2023-02-21T02:25:53;100331.19;;;5.55;100.00
51452;BME280;37521;52.020;-1.740;2023-02-21T02:28:41;100331.19;;;5.55;100.00
51452;BME280;37521;52.020;-1.740;2023-02-21T02:31:32;100327.72;;;5.56;100.00
51452;BME280;37521;52.020;-1.740;2023-02-21T02:34:28;100314.63;;;5.56;100.00
51452;BME280;37521;52.020;-1.740;2023-02-21T02:37:07;100303.28;;;5.54;100.00
51452;BME280;37521;52.020;-1.740;2023-02-21T02:39:40;100312.03;;;5.53;100.00
51452;BME280;37521;52.020;-1.740;2023-02-21T02:42:18;100305.09;;;5.52;100.00
51452;BME280;37521;52.020;-1.740;2023-02-21T02:44:55;100308.56;;;5.52;100.00
51452;BME280;37521;52.020;-1.740;2023-02-21T02:47:28;100312.03;;;5.53;100.00
51452;BME280;37521;52.020;-1.740;2023-02-21T02:49:59;100305.03;;;5.53;100.00
51452;BME280;37521;52.020;-1.740;2023-02-21T02:52:28;100303.38;;;5.51;100.00
51452;BME280;37521;52.020;-1.740;2023-02-21T02:54:59;100288.50;;;5.51;100.00
51452;BME280;37521;52.020;-1.740;2023-02-21T02:57:29;100281.59;;;5.49;100.00
51452;BME280;37521;52.020;-1.740;2023-02-21T03:00:05;100274.59;;;5.47;100.00
51452;BME280;37521;52.020;-1.740;2023-02-21T03:02:48;100271.13;;;5.47;100.00
51452;BME280;37521;52.020;-1.740;2023-02-21T03:05:31;100270.22;;;5.50;100.00
51452;BME280;37521;52.020;-1.740;2023-02-21T03:08:12;100268.50;;;5.49;100.00
51452;BME280;37521;52.020;-1.740;2023-02-21T03:10:47;100265.88;;;5.47;100.00
51452;BME280;37521;52.020;-1.740;2023-02-21T03:13:21;100268.53;;;5.45;100.00
51452;BME280;37521;52.020;-1.740;2023-02-21T03:15:59;100260.72;;;5.44;100.00
51452;BME280;37521;52.020;-1.740;2023-02-21T03:18:35;100265.97;;;5.44;100.00
51452;BME280;37521;52.020;-1.740;2023-02-21T03:21:11;100254.69;;;5.40;100.00
51452;BME280;37521;52.020;-1.740;2023-02-21T03:23:44;100251.25;;;5.38;100.00
51452;BME280;37521;52.020;-1.740;2023-02-21T03:26:14;100253.81;;;5.40;100.00
51452;BME280;37521;52.020;-1.740;2023-02-21T03:28:48;100253.88;;;5.38;100.00
51452;BME280;37521;52.020;-1.740;2023-02-21T03:31:22;100254.75;;;5.37;100.00
51452;BME280;37521;52.020;-1.740;2023-02-21T03:33:52;100252.97;;;5.39;100.00
51452;BME280;37521;52.020;-1.740;2023-02-21T03:36:22;100255.63;;;5.38;100.00
51452;BME280;37521;52.020;-1.740;2023-02-21T03:38:51;100260.00;;;5.37;100.00
51452;BME280;37521;52.020;-1.740;2023-02-21T03:41:20;100253.03;;;5.36;100.00
51452;BME280;37521;52.020;-1.740;2023-02-21T03:43:48;100246.94;;;5.34;100.00
51452;BME280;37521;52.020;-1.740;2023-02-21T03:46:17;100244.41;;;5.31;100.00
51452;BME280;37521;52.020;-1.740;2023-02-21T03:48:45;100254.03;;;5.31;100.00
51452;BME280;37521;52.020;-1.740;2023-02-21T03:51:19;100249.69;;;5.28;100.00
51452;BME280;37521;52.020;-1.740;2023-02-21T03:53:49;100237.50;;;5.27;100.00
51452;BME280;37521;52.020;-1.740;2023-02-21T03:56:20;100233.13;;;5.28;100.00
51452;BME280;37521;52.020;-1.740;2023-02-21T03:59:04;100231.41;;;5.27;100.00
51452;BME280;37521;52.020;-1.740;2023-02-21T04:01:33;100237.53;;;5.26;100.00
51452;BME280;37521;52.020;-1.740;2023-02-21T04:04:01;100231.50;;;5.24;100.00
51452;BME280;37521;52.020;-1.740;2023-02-21T04:06:29;100233.28;;;5.22;100.00
51452;BME280;37521;52.020;-1.740;2023-02-21T04:08:59;100226.34;;;5.19;100.00
51452;BME280;37521;52.020;-1.740;2023-02-21T04:11:29;100234.19;;;5.19;100.00
51452;BME280;37521;52.020;-1.740;2023-02-21T04:13:58;100227.25;;;5.18;100.00
51452;BME280;37521;52.020;-1.740;2023-02-21T04:16:26;100230.75;;;5.17;100.00
51452;BME280;37521;52.020;-1.740;2023-02-21T04:18:55;100223.81;;;5.16;100.00
51452;BME280;37521;52.020;-1.740;2023-02-21T04:21:24;100226.44;;;5.14;100.00
51452;BME280;37521;52.020;-1.740;2023-02-21T04:23:55;100223.84;;;5.13;100.00
51452;BME280;37521;52.020;-1.740;2023-02-21T04:26:28;100223.00;;;5.12;100.00
51452;BME280;37521;52.020;-1.740;2023-02-21T04:28:57;100216.91;;;5.12;100.00
51452;BME280;37521;52.020;-1.740;2023-02-21T04:31:25;100214.22;;;5.13;100.00
51452;BME280;37521;52.020;-1.740;2023-02-21T04:33:56;100209.00;;;5.13;100.00
51452;BME280;37521;52.020;-1.740;2023-02-21T04:36:38;100216.84;;;5.13;100.00
51452;BME280;37521;52.020;-1.740;2023-02-21T04:39:08;100218.63;;;5.13;100.00
51452;BME280;37521;52.020;-1.740;2023-02-21T04:41:38;100213.34;;;5.14;100.00
51452;BME280;37521;52.020;-1.740;2023-02-21T04:44:08;100223.81;;;5.14;100.00
51452;BME280;37521;52.020;-1.740;2023-02-21T04:46:36;100212.47;;;5.14;100.00
51452;BME280;37521;52.020;-1.740;2023-02-21T04:49:06;100216.03;;;5.11;100.00
51452;BME280;37521;52.020;-1.740;2023-02-21T04:51:34;100218.63;;;5.13;100.00
51452;BME280;37521;52.020;-1.740;2023-02-21T04:54:02;100216.94;;;5.10;100.00
51452;BME280;37521;52.020;-1.740;2023-02-21T04:56:30;100218.69;;;5.10;100.00
51452;BME280;37521;52.020;-1.740;2023-02-21T04:59:00;100213.47;;;5.10;100.00
51452;BME280;37521;52.020;-1.740;2023-02-21T05:01:29;100211.75;;;5.09;100.00
51452;BME280;37521;52.020;-1.740;2023-02-21T05:03:58;100210.88;;;5.08;100.00
51452;BME280;37521;52.020;-1.740;2023-02-21T05:06:28;100216.13;;;5.07;100.00
51452;BME280;37521;52.020;-1.740;2023-02-21T05:08:57;100217.88;;;5.06;100.00
51452;BME280;37521;52.020;-1.740;2023-02-21T05:11:26;100223.97;;;5.08;100.00
51452;BME280;37521;52.020;-1.740;2023-02-21T05:13:55;100214.34;;;5.07;100.00
51452;BME280;37521;52.020;-1.740;2023-02-21T05:16:24;100205.66;;;5.08;100.00
51452;BME280;37521;52.020;-1.740;2023-02-21T05:18:52;100207.38;;;5.09;100.00
51452;BME280;37521;52.020;-1.740;2023-02-21T05:21:21;100215.22;;;5.08;100.00
51452;BME280;37521;52.020;-1.740;2023-02-21T05:23:49;100210.97;;;5.04;100.00
51452;BME280;37521;52.020;-1.740;2023-02-21T05:26:24;100215.34;;;5.03;100.00
51452;BME280;37521;52.020;-1.740;2023-02-21T05:28:53;100210.16;;;5.00;100.00
51452;BME280;37521;52.020;-1.740;2023-02-21T05:31:23;100208.47;;;4.98;100.00
51452;BME280;37521;52.020;-1.740;2023-02-21T05:33:52;100207.59;;;4.97;100.00
51452;BME280;37521;52.020;-1.740;2023-02-21T05:36:20;100206.78;;;4.95;100.00
51452;BME280;37521;52.020;-1.740;2023-02-21T05:38:52;100203.28;;;4.95;100.00
51452;BME280;37521;52.020;-1.740;2023-02-21T05:41:22;100203.28;;;4.95;100.00
51452;BME280;37521;52.020;-1.740;2023-02-21T05:43:50;100205.03;;;4.96;100.00
51452;BME280;37521;52.020;-1.740;2023-02-21T05:46:22;100200.63;;;4.98;100.00
51452;BME280;37521;52.020;-1.740;2023-02-21T05:48:52;100201.50;;;4.97;100.00
51452;BME280;37521;52.020;-1.740;2023-02-21T05:51:20;100194.56;;;4.96;100.00
51452;BME280;37521;52.020;-1.740;2023-02-21T05:53:49;100195.44;;;4.96;100.00
51452;BME280;37521;52.020;-1.740;2023-02-21T05:56:18;100191.91;;;4.97;100.00
51452;BME280;37521;52.020;-1.740;2023-02-21T05:58:46;100187.53;;;4.98;100.00
51452;BME280;37521;52.020;-1.740;2023-02-21T06:01:15;100189.25;;;4.99;100.00
51452;BME280;37521;52.020;-1.740;2023-02-21T06:03:43;100182.31;;;4.98;100.00
51452;BME280;37521;52.020;-1.740;2023-02-21T06:06:16;100187.56;;;4.95;100.00
51452;BME280;37521;52.020;-1.740;2023-02-21T06:08:45;100188.47;;;4.93;100.00
51452;BME280;37521;52.020;-1.740;2023-02-21T06:11:14;100178.91;;;4.92;100.00
51452;BME280;37521;52.020;-1.740;2023-02-21T06:13:43;100186.84;;;4.89;100.00
51452;BME280;37521;52.020;-1.740;2023-02-21T06:16:11;100184.25;;;4.86;100.00
51452;BME280;37521;52.020;-1.740;2023-02-21T06:18:41;100184.25;;;4.86;100.00
51452;BME280;37521;52.020;-1.740;2023-02-21T06:21:09;100184.25;;;4.86;100.00
51452;BME280;37521;52.020;-1.740;2023-02-21T06:23:38;100179.94;;;4.85;100.00
51452;BME280;37521;52.020;-1.740;2023-02-21T06:26:07;100187.81;;;4.84;100.00
51452;BME280;37521;52.020;-1.740;2023-02-21T06:28:35;100181.69;;;4.85;100.00
51452;BME280;37521;52.020;-1.740;2023-02-21T06:31:03;100182.53;;;4.85;100.00
51452;BME280;37521;52.020;-1.740;2023-02-21T06:33:32;100185.97;;;4.87;100.00
51452;BME280;37521;52.020;-1.740;2023-02-21T06:36:03;100170.28;;;4.87;100.00
51452;BME280;37521;52.020;-1.740;2023-02-21T06:38:32;100172.94;;;4.86;100.00
51452;BME280;37521;52.020;-1.740;2023-02-21T06:41:04;100169.44;;;4.87;100.00
51452;BME280;37521;52.020;-1.740;2023-02-21T06:43:33;100172.91;;;4.87;100.00
51452;BME280;37521;52.020;-1.740;2023-02-21T06:46:03;100161.63;;;4.85;100.00
51452;BME280;37521;52.020;-1.740;2023-02-21T06:48:31;100166.84;;;4.85;100.00
51452;BME280;37521;52.020;-1.740;2023-02-21T06:50:59;100170.28;;;4.87;100.00
51452;BME280;37521;52.020;-1.740;2023-02-21T06:53:27;100170.28;;;4.87;100.00
51452;BME280;37521;52.020;-1.740;2023-02-21T06:55:55;100166.81;;;4.88;100.00
51452;BME280;37521;52.020;-1.740;2023-02-21T06:58:25;100169.41;;;4.88;100.00
51452;BME280;37521;52.020;-1.740;2023-02-21T07:00:53;100165.91;;;4.89;100.00
51452;BME280;37521;52.020;-1.740;2023-02-21T07:03:24;100166.81;;;4.88;100.00
51452;BME280;37521;52.020;-1.740;2023-02-21T07:05:52;100162.44;;;4.87;100.00
51452;BME280;37521;52.020;-1.740;2023-02-21T07:08:20;100159.81;;;4.87;100.00
51452;BME280;37521;52.020;-1.740;2023-02-21T07:10:48;100153.72;;;4.88;100.00
51452;BME280;37521;52.020;-1.740;2023-02-21T07:13:17;100163.28;;;4.89;100.00
51452;BME280;37521;52.020;-1.740;2023-02-21T07:15:49;100163.28;;;4.89;100.00
51452;BME280;37521;52.020;-1.740;2023-02-21T07:18:17;100168.53;;;4.89;100.00
51452;BME280;37521;52.020;-1.740;2023-02-21T07:20:45;100167.66;;;4.89;100.00
51452;BME280;37521;52.020;-1.740;2023-02-21T07:23:14;100169.41;;;4.88;100.00
51452;BME280;37521;52.020;-1.740;2023-02-21T07:25:42;100165.06;;;4.87;100.00
51452;BME280;37521;52.020;-1.740;2023-02-21T07:28:10;100164.19;;;4.87;100.00
51452;BME280;37521;52.020;-1.740;2023-02-21T07:30:38;100164.19;;;4.87;100.00
51452;BME280;37521;52.020;-1.740;2023-02-21T07:33:08;100167.66;;;4.87;100.00
51452;BME280;37521;52.020;-1.740;2023-02-21T07:35:36;100166.81;;;4.87;100.00
51452;BME280;37521;52.020;-1.740;2023-02-21T07:38:04;100167.72;;;4.86;100.00
51452;BME280;37521;52.020;-1.740;2023-02-21T07:40:32;100163.34;;;4.86;100.00
51452;BME280;37521;52.020;-1.740;2023-02-21T07:43:00;100158.09;;;4.86;100.00
51452;BME280;37521;52.020;-1.740;2023-02-21T07:45:29;100167.66;;;4.87;100.00
51452;BME280;37521;52.020;-1.740;2023-02-21T07:47:57;100179.88;;;4.87;100.00
51452;BME280;37521;52.020;-1.740;2023-02-21T07:50:26;100169.44;;;4.87;100.00
51452;BME280;37521;52.020;-1.740;2023-02-21T07:52:55;100176.38;;;4.88;100.00
51452;BME280;37521;52.020;-1.740;2023-02-21T07:55:25;100184.22;;;4.89;100.00
51452;BME280;37521;52.020;-1.740;2023-02-21T07:57:53;100177.19;;;4.91;100.00
51452;BME280;37521;52.020;-1.740;2023-02-21T08:00:21;100182.34;;;4.95;100.00
51452;BME280;37521;52.020;-1.740;2023-02-21T08:02:51;100182.31;;;4.98;100.00
51452;BME280;37521;52.020;-1.740;2023-02-21T08:05:19;100180.59;;;4.97;100.00
51452;BME280;37521;52.020;-1.740;2023-02-21T08:07:49;100180.59;;;4.97;100.00
51452;BME280;37521;52.020;-1.740;2023-02-21T08:10:20;100185.88;;;4.93;100.00
51452;BME280;37521;52.020;-1.740;2023-02-21T08:12:48;100178.06;;;4.92;100.00
51452;BME280;37521;52.020;-1.740;2023-02-21T08:15:17;100179.78;;;4.93;100.00
51452;BME280;37521;52.020;-1.740;2023-02-21T08:17:47;100178.88;;;4.94;100.00
51452;BME280;37521;52.020;-1.740;2023-02-21T08:20:15;100189.34;;;4.96;100.00
51452;BME280;37521;52.020;-1.740;2023-02-21T08:22:44;100185.81;;;4.97;100.00
51452;BME280;37521;52.020;-1.740;2023-02-21T08:25:15;100184.03;;;4.99;100.00
51452;BME280;37521;52.020;-1.740;2023-02-21T08:27:44;100186.69;;;4.97;100.00
51452;BME280;37521;52.020;-1.740;2023-02-21T08:30:14;100193.63;;;4.98;100.00
51452;BME280;37521;52.020;-1.740;2023-02-21T08:32:44;100188.41;;;4.98;100.00
51452;BME280;37521;52.020;-1.740;2023-02-21T08:35:14;100183.09;;;5.01;100.00
51452;BME280;37521;52.020;-1.740;2023-02-21T08:37:44;100194.44;;;5.02;100.00
51452;BME280;37521;52.020;-1.740;2023-02-21T08:40:17;100184.72;;;5.07;100.00
51452;BME280;37521;52.020;-1.740;2023-02-21T08:42:48;100176.81;;;5.10;100.00
51452;BME280;37521;52.020;-1.740;2023-02-21T08:45:18;100173.25;;;5.12;100.00
51452;BME280;37521;52.020;-1.740;2023-02-21T08:47:46;100166.25;;;5.13;100.00
51452;BME280;37521;52.020;-1.740;2023-02-21T08:50:15;100177.59;;;5.15;100.00
51452;BME280;37521;52.020;-1.740;2023-02-21T08:52:44;100178.41;;;5.17;100.00
51452;BME280;37521;52.020;-1.740;2023-02-21T08:55:15;100177.47;;;5.19;100.00
51452;BME280;37521;52.020;-1.740;2023-02-21T08:57:43;100180.97;;;5.18;100.00
51452;BME280;37521;52.020;-1.740;2023-02-21T09:00:13;100180.22;;;5.15;100.00
51452;BME280;37521;52.020;-1.740;2023-02-21T09:02:42;100187.16;;;5.16;100.00
51452;BME280;37521;52.020;-1.740;2023-02-21T09:05:12;100188.88;;;5.17;100.00
51452;BME280;37521;52.020;-1.740;2023-02-21T09:07:41;100186.25;;;5.17;100.00
51452;BME280;37521;52.020;-1.740;2023-02-21T09:10:10;100180.13;;;5.18;100.00
51452;BME280;37521;52.020;-1.740;2023-02-21T09:12:40;100170.47;;;5.20;100.00
51452;BME280;37521;52.020;-1.740;2023-02-21T09:15:09;100165.19;;;5.23;100.00
51452;BME280;37521;52.020;-1.740;2023-02-21T09:17:37;100166.81;;;5.29;100.00
51452;BME280;37521;52.020;-1.740;2023-02-21T09:20:07;100147.63;;;5.27;100.00
51452;BME280;37521;52.020;-1.740;2023-02-21T09:22:36;100152.84;;;5.28;100.00
51452;BME280;37521;52.020;-1.740;2023-02-21T09:25:04;100149.25;;;5.32;100.00
51452;BME280;37521;52.020;-1.740;2023-02-21T09:27:33;100148.34;;;5.33;100.00
51452;BME280;37521;52.020;-1.740;2023-02-21T09:30:07;100153.50;;;5.38;100.00
51452;BME280;37521;52.020;-1.740;2023-02-21T09:32:35;100145.69;;;5.35;100.00
51452;BME280;37521;52.020;-1.740;2023-02-21T09:35:04;100142.28;;;5.33;100.00
51452;BME280;37521;52.020;-1.740;2023-02-21T09:37:32;100143.09;;;5.35;100.00
51452;BME280;37521;52.020;-1.740;2023-02-21T09:40:04;100150.94;;;5.35;100.00
51452;BME280;37521;52.020;-1.740;2023-02-21T09:42:35;100153.53;;;5.36;100.00
51452;BME280;37521;52.020;-1.740;2023-02-21T09:45:05;100152.56;;;5.40;100.00
51452;BME280;37521;52.020;-1.740;2023-02-21T09:47:35;100153.31;;;5.45;100.00
51452;BME280;37521;52.020;-1.740;2023-02-21T09:50:07;100162.91;;;5.46;100.00
51452;BME280;37521;52.020;-1.740;2023-02-21T09:52:41;100162.94;;;5.45;100.00
51452;BME280;37521;52.020;-1.740;2023-02-21T09:55:13;100163.88;;;5.42;100.00
51452;BME280;37521;52.020;-1.740;2023-02-21T09:57:47;100173.38;;;5.46;100.00
51452;BME280;37521;52.020;-1.740;2023-02-21T10:00:20;100175.84;;;5.53;100.00
51452;BME280;37521;52.020;-1.740;2023-02-21T10:02:56;100177.56;;;5.54;100.00
51452;BME280;37521;52.020;-1.740;2023-02-21T10:05:36;100168.91;;;5.52;100.00
51452;BME280;37521;52.020;-1.740;2023-02-21T10:08:14;100168.03;;;5.51;100.00
51452;BME280;37521;52.020;-1.740;2023-02-21T10:10:45;100161.84;;;5.54;100.00
51452;BME280;37521;52.020;-1.740;2023-02-21T10:13:25;100160.91;;;5.58;100.00
51452;BME280;37521;52.020;-1.740;2023-02-21T10:16:00;100165.38;;;5.53;100.00
51452;BME280;37521;52.020;-1.740;2023-02-21T10:18:34;100169.94;;;5.44;100.00
51452;BME280;37521;52.020;-1.740;2023-02-21T10:21:08;100161.25;;;5.42;100.00
51452;BME280;37521;52.020;-1.740;2023-02-21T10:23:41;100156.81;;;5.46;100.00
51452;BME280;37521;52.020;-1.740;2023-02-21T10:26:16;100155.81;;;5.52;100.00
51452;BME280;37521;52.020;-1.740;2023-02-21T10:28:45;100150.66;;;5.47;100.00
51452;BME280;37521;52.020;-1.740;2023-02-21T10:31:17;100155.13;;;5.43;100.00
51452;BME280;37521;52.020;-1.740;2023-02-21T10:33:47;100147.28;;;5.43;100.00
51452;BME280;37521;52.020;-1.740;2023-02-21T10:36:17;100145.41;;;5.49;100.00
51452;BME280;37521;52.020;-1.740;2023-02-21T10:38:53;100129.53;;;5.55;100.00
51452;BME280;37521;52.020;-1.740;2023-02-21T10:41:23;100143.44;;;5.58;100.00
51452;BME280;37521;52.020;-1.740;2023-02-21T10:43:59;100136.38;;;5.62;100.00
51452;BME280;37521;52.020;-1.740;2023-02-21T10:46:36;100138.75;;;5.71;100.00
51452;BME280;37521;52.020;-1.740;2023-02-21T10:49:20;100131.72;;;5.73;100.00
51452;BME280;37521;52.020;-1.740;2023-02-21T10:52:04;100122.19;;;5.70;100.00
51452;BME280;37521;52.020;-1.740;2023-02-21T10:54:33;100118.41;;;5.81;100.00
51452;BME280;37521;52.020;-1.740;2023-02-21T10:57:03;100116.44;;;5.90;100.00
51452;BME280;37521;52.020;-1.740;2023-02-21T10:59:35;100112.59;;;6.05;100.00
51452;BME280;37521;52.020;-1.740;2023-02-21T11:02:28;100103.66;;;6.12;100.00
51452;BME280;37521;52.020;-1.740;2023-02-21T11:05:08;100111.72;;;6.05;100.00
51452;BME280;37521;52.020;-1.740;2023-02-21T11:07:38;100108.31;;;6.03;100.00
51452;BME280;37521;52.020;-1.740;2023-02-21T11:10:26;100115.41;;;5.97;100.00
51452;BME280;37521;52.020;-1.740;2023-02-21T11:13:14;100113.88;;;6.23;100.00
51452;BME280;37521;52.020;-1.740;2023-02-21T11:15:44;100109.88;;;6.41;100.00
51452;BME280;37521;52.020;-1.740;2023-02-21T11:18:17;100108.00;;;6.46;100.00
51452;BME280;37521;52.020;-1.740;2023-02-21T11:20:46;100107.06;;;6.47;100.00
51452;BME280;37521;52.020;-1.740;2023-02-21T11:23:19;100106.09;;;6.51;100.00
51452;BME280;37521;52.020;-1.740;2023-02-21T11:25:48;100108.09;;;6.41;100.00
51452;BME280;37521;52.020;-1.740;2023-02-21T11:28:21;100108.25;;;6.37;100.00
51452;BME280;37521;52.020;-1.740;2023-02-21T11:31:02;100106.75;;;6.26;100.00
51452;BME280;37521;52.020;-1.740;2023-02-21T11:33:35;100104.34;;;6.19;100.00
51452;BME280;37521;52.020;-1.740;2023-02-21T11:36:09;100101.56;;;6.25;100.00
51452;BME280;37521;52.020;-1.740;2023-02-21T11:38:40;100093.53;;;6.31;100.00
51452;BME280;37521;52.020;-1.740;2023-02-21T11:41:20;100095.25;;;6.32;100.00
51452;BME280;37521;52.020;-1.740;2023-02-21T11:43:49;100095.41;;;6.26;100.00
51452;BME280;37521;52.020;-1.740;2023-02-21T11:46:30;100093.38;;;6.05;100.00
51452;BME280;37521;52.020;-1.740;2023-02-21T11:49:05;100085.69;;;5.98;100.00
51452;BME280;37521;52.020;-1.740;2023-02-21T11:51:40;100083.81;;;6.04;100.00
51452;BME280;37521;52.020;-1.740;2023-02-21T11:54:08;100080.28;;;6.05;100.00
51452;BME280;37521;52.020;-1.740;2023-02-21T11:56:47;100079.31;;;6.07;100.00
51452;BME280;37521;52.020;-1.740;2023-02-21T11:59:25;100072.09;;;6.17;100.00
51452;BME280;37521;52.020;-1.740;2023-02-21T12:02:13;100070.81;;;6.32;100.00
51452;BME280;37521;52.020;-1.740;2023-02-21T12:04:55;100072.56;;;6.31;100.00
51452;BME280;37521;52.020;-1.740;2023-02-21T12:07:32;100074.78;;;6.14;100.00
51452;BME280;37521;52.020;-1.740;2023-02-21T12:10:17;100064.47;;;6.08;100.00
51452;BME280;37521;52.020;-1.740;2023-02-21T12:12:58;100061.72;;;6.12;100.00
51452;BME280;37521;52.020;-1.740;2023-02-21T12:15:31;100058.34;;;6.09;100.00
51452;BME280;37521;52.020;-1.740;2023-02-21T12:18:21;100054.66;;;6.16;100.00
51452;BME280;37521;52.020;-1.740;2023-02-21T12:21:07;100048.50;;;6.17;100.00
51452;BME280;37521;52.020;-1.740;2023-02-21T12:23:49;100046.63;;;6.22;100.00
51452;BME280;37521;52.020;-1.740;2023-02-21T12:26:31;100042.72;;;6.35;100.00
51452;BME280;37521;52.020;-1.740;2023-02-21T12:29:11;100040.66;;;6.46;100.00
51452;BME280;37521;52.020;-1.740;2023-02-21T12:31:52;100036.88;;;6.57;100.00
51452;BME280;37521;52.020;-1.740;2023-02-21T12:34:36;100032.53;;;6.55;100.00
51452;BME280;37521;52.020;-1.740;2023-02-21T12:37:19;100019.31;;;6.59;100.00
51452;BME280;37521;52.020;-1.740;2023-02-21T12:40:01;100027.81;;;6.67;100.00
51452;BME280;37521;52.020;-1.740;2023-02-21T12:42:41;100023.16;;;6.76;100.00
51452;BME280;37521;52.020;-1.740;2023-02-21T12:45:22;100023.91;;;6.80;100.00
51452;BME280;37521;52.020;-1.740;2023-02-21T12:48:01;100016.66;;;6.88;100.00
51452;BME280;37521;52.020;-1.740;2023-02-21T12:50:35;100020.28;;;6.84;100.00
51452;BME280;37521;52.020;-1.740;2023-02-21T12:53:10;100007.59;;;6.70;100.00
51452;BME280;37521;52.020;-1.740;2023-02-21T12:55:44;100005.09;;;6.66;100.00
51452;BME280;37521;52.020;-1.740;2023-02-21T12:58:18;100001.38;;;6.73;100.00
51452;BME280;37521;52.020;-1.740;2023-02-21T13:00:53;99999.28;;;6.84;100.00
51452;BME280;37521;52.020;-1.740;2023-02-21T13:03:33;99993.84;;;6.90;100.00
51452;BME280;37521;52.020;-1.740;2023-02-21T13:06:07;99992.03;;;6.92;100.00
51452;BME280;37521;52.020;-1.740;2023-02-21T13:08:52;99985.63;;;7.01;100.00
51452;BME280;37521;52.020;-1.740;2023-02-21T13:11:26;99979.63;;;6.97;100.00
51452;BME280;37521;52.020;-1.740;2023-02-21T13:13:57;99984.28;;;6.89;100.00
51452;BME280;37521;52.020;-1.740;2023-02-21T13:16:26;99975.19;;;6.71;100.00
51452;BME280;37521;52.020;-1.740;2023-02-21T13:18:58;99983.94;;;6.72;100.00
51452;BME280;37521;52.020;-1.740;2023-02-21T13:21:49;99976.84;;;6.74;100.00
51452;BME280;37521;52.020;-1.740;2023-02-21T13:24:37;99972.38;;;6.77;100.00